< Typhoon 198401 1984 Season Typhoon 198403 >
Typhoon 198402 (WYNNE)
General InformationTrack Information on Google MapsDetailed Wind InformationList of All Images || Disaster Info.ResourceGoogle EarthGE AnimationAtom FeedGeoJSON
Detalied Best Track (Time Zone = UTC)
Year Month Day Hour Lat. Long. Pressure (hPa) Wind (kt) Class Image Chart
1984 6 18 06 21.0 135.0 1004 0 2 Image Chart
1984 6 18 12 21.1 134.5 1004 0 2 Image Chart
1984 6 18 18 21.2 134.0 1002 0 2 Image Chart
1984 6 19 00 21.3 133.4 1002 0 2 Image Chart
1984 6 19 06 21.4 132.8 1000 0 2 Image Chart
1984 6 19 12 21.4 132.1 1000 0 2 Image Chart
1984 6 19 18 21.7 131.6 996 35 3 Image Chart
1984 6 20 00 22.1 131.1 992 35 3 Image Chart
1984 6 20 06 22.3 130.5 992 35 3 Image Chart
1984 6 20 12 22.5 129.8 990 35 3 Image Chart
1984 6 20 18 22.6 129.2 990 35 3 Image Chart
1984 6 21 00 22.6 128.4 990 40 3 Image Chart
1984 6 21 06 22.5 128.1 990 40 3 Image Chart
1984 6 21 12 22.3 127.8 990 50 4 Image Chart
1984 6 21 18 22.3 127.3 985 50 4 Image Chart
1984 6 22 00 22.3 126.9 985 50 4 Image Chart
1984 6 22 06 22.3 126.5 985 50 4 Image Chart
1984 6 22 12 22.3 125.8 985 50 4 Image Chart
1984 6 22 18 22.2 125.0 985 50 4 Image Chart
1984 6 23 00 22.2 124.1 985 50 4 Image Chart
1984 6 23 06 22.0 123.3 980 55 4 Image Chart
1984 6 23 12 22.0 122.1 980 55 4 Image Chart
1984 6 23 18 21.8 120.6 980 55 4 Image Chart
1984 6 24 00 21.4 119.0 980 55 4 Image Chart
1984 6 24 06 21.3 117.2 980 55 4 Image Chart
1984 6 24 12 21.1 115.4 980 55 4 Image Chart
1984 6 24 18 21.0 114.5 985 50 4 Image Chart
1984 6 25 00 21.1 113.5 985 50 4 Image Chart
1984 6 25 06 21.4 112.3 985 50 4 Image Chart
1984 6 25 12 21.2 110.8 985 45 3 Image Chart
1984 6 25 18 21.3 109.3 985 45 3 Image Chart
1984 6 26 00 21.5 107.5 992 0 2 Image Chart
1984 6 26 06 21.5 105.5 992 0 2 Image Chart
1984 6 26 12 21.5 104.0 994 0 2 Image Chart
1984 6 26 18 21.0 102.0 996 0 2 Image Chart
1984 6 27 00 21.0 100.0 998 0 2 Image Chart
1984 6 27 06 21.0 98.5 998 0 2 Image Chart
Japan Meteorological Agency Best Track Data | Correction Date : 1992-10-21
< Typhoon 198401 1984 Season Typhoon 198403 >

Help